Time;durP1;ratioP1;P1;durP2;ratioP2;P2;SDS_P1;SDS_P2;PMS_P1;PMS_P2;Temp;Humidity;BMP_temperature;BMP_pressure;BME280_temperature;BME280_humidity;BME280_pressure;Samples;Min_cycle;Max_cycle;Signal;HPM_P1;HPM_P2
2022/10/07 00:01:19;;;;;;;4.60;3.00;;;13.60;99.90;;;;;;5021303;28;20172;-65
2022/10/07 00:03:45;;;;;;;7.53;2.93;;;13.50;99.90;;;;;;5021543;28;20183;-66
2022/10/07 00:06:13;;;;;;;5.73;3.00;;;13.50;99.90;;;;;;5020737;28;20212;-66
2022/10/07 00:08:41;;;;;;;4.47;2.90;;;13.50;99.90;;;;;;5025920;28;20618;-65
2022/10/07 00:11:13;;;;;;;8.17;3.10;;;13.50;99.90;;;;;;5022681;28;20430;-66
2022/10/07 00:13:42;;;;;;;6.83;2.87;;;13.50;99.90;;;;;;5010504;28;20422;-65
2022/10/07 00:16:11;;;;;;;8.97;3.20;;;13.50;99.90;;;;;;5020449;28;20478;-66
2022/10/07 00:18:37;;;;;;;3.90;3.03;;;13.50;99.90;;;;;;5029761;28;20465;-66
2022/10/07 00:21:05;;;;;;;4.30;2.93;;;13.40;99.90;;;;;;5025593;28;20951;-65
2022/10/07 00:23:31;;;;;;;2.60;2.40;;;13.40;99.90;;;;;;5025242;28;20430;-65
2022/10/07 00:26:02;;;;;;;6.57;3.07;;;13.40;99.90;;;;;;5025655;28;20534;-66
2022/10/07 00:28:28;;;;;;;4.17;2.77;;;13.40;99.90;;;;;;5028064;28;20708;-66
2022/10/07 00:31:03;;;;;;;7.17;3.07;;;13.40;99.90;;;;;;5024619;28;20439;-66
2022/10/07 00:33:34;;;;;;;4.80;3.40;;;13.40;99.90;;;;;;5029309;28;20217;-66
2022/10/07 00:36:00;;;;;;;9.20;2.90;;;13.40;99.90;;;;;;5026062;28;20473;-66
2022/10/07 00:38:26;;;;;;;4.93;2.77;;;13.40;99.90;;;;;;5029627;28;20549;-66
2022/10/07 00:40:51;;;;;;;5.40;2.87;;;13.30;99.90;;;;;;5023320;28;20849;-66
2022/10/07 00:43:26;;;;;;;6.50;2.77;;;13.30;99.90;;;;;;5029348;28;20179;-66
2022/10/07 00:45:53;;;;;;;6.60;3.10;;;13.30;99.90;;;;;;5024074;28;20719;-66
2022/10/07 00:48:23;;;;;;;5.93;2.90;;;13.30;99.90;;;;;;5024016;28;20454;-65
2022/10/07 00:50:51;;;;;;;5.40;2.67;;;13.30;99.90;;;;;;5005767;28;20466;-65
2022/10/07 00:53:17;;;;;;;6.37;2.73;;;13.30;99.90;;;;;;5028510;28;20425;-66
2022/10/07 00:55:43;;;;;;;5.07;2.40;;;13.30;99.90;;;;;;5019273;28;20453;-65
2022/10/07 00:58:09;;;;;;;9.43;2.97;;;13.30;99.90;;;;;;5008495;28;20517;-65
2022/10/07 01:00:36;;;;;;;8.30;3.33;;;13.30;99.90;;;;;;5024470;28;21262;-65
2022/10/07 01:03:02;;;;;;;3.90;3.30;;;13.30;99.90;;;;;;5022861;28;20175;-66
2022/10/07 01:05:28;;;;;;;8.33;2.93;;;13.30;99.90;;;;;;5028454;28;20450;-66
2022/10/07 01:07:54;;;;;;;12.03;3.23;;;13.30;99.90;;;;;;5032104;28;20171;-66
2022/10/07 01:10:21;;;;;;;7.50;3.60;;;13.30;99.90;;;;;;5025594;28;20241;-65
2022/10/07 01:13:06;;;;;;;9.20;2.93;;;13.30;99.90;;;;;;5031860;28;20425;-66
2022/10/07 01:15:44;;;;;;;3.50;2.80;;;13.30;99.90;;;;;;5017300;28;20458;-66
2022/10/07 01:18:22;;;;;;;4.10;2.97;;;13.20;99.90;;;;;;5027885;28;20548;-67
2022/10/07 01:21:09;;;;;;;3.23;2.93;;;13.20;99.90;;;;;;5026923;28;20995;-66
2022/10/07 01:23:57;;;;;;;5.47;3.07;;;13.20;99.90;;;;;;5025558;28;20434;-65
2022/10/07 01:26:47;;;;;;;8.23;3.07;;;13.20;99.90;;;;;;5027333;28;20442;-66
2022/10/07 01:29:27;;;;;;;14.27;2.90;;;13.20;99.90;;;;;;5028124;28;20569;-65
2022/10/07 01:31:59;;;;;;;12.17;3.00;;;13.20;99.90;;;;;;5023495;28;20426;-65
2022/10/07 01:34:26;;;;;;;7.10;2.83;;;13.20;99.90;;;;;;5031549;28;20434;-67
2022/10/07 01:36:54;;;;;;;5.53;3.00;;;13.20;99.90;;;;;;5028043;28;20493;-66
2022/10/07 01:39:24;;;;;;;6.80;2.80;;;13.20;99.90;;;;;;5012457;28;20553;-66
2022/10/07 01:41:51;;;;;;;4.17;3.30;;;13.30;99.90;;;;;;5029502;28;20417;-66
2022/10/07 01:44:17;;;;;;;8.10;3.10;;;13.30;99.90;;;;;;5038080;28;20923;-66
2022/10/07 01:46:43;;;;;;;5.53;2.60;;;13.30;99.90;;;;;;5031152;28;20468;-66
2022/10/07 01:49:08;;;;;;;4.30;2.93;;;13.20;99.90;;;;;;5020655;28;20194;-66
2022/10/07 01:51:37;;;;;;;5.83;3.13;;;13.30;99.90;;;;;;5023248;28;20678;-67
2022/10/07 01:54:24;;;;;;;3.87;2.60;;;13.30;99.90;;;;;;5023993;28;20542;-66
2022/10/07 01:57:08;;;;;;;6.57;3.03;;;13.30;99.90;;;;;;5023009;28;20603;-66
2022/10/07 02:00:12;;;;;;;4.00;2.80;;;13.30;99.90;;;;;;5031747;28;20457;-66
2022/10/07 02:03:11;;;;;;;5.83;2.90;;;13.30;99.90;;;;;;4990948;28;20946;-66
2022/10/07 02:05:51;;;;;;;11.17;3.40;;;13.30;99.90;;;;;;4986357;28;20466;-66
2022/10/07 02:08:35;;;;;;;7.47;3.57;;;13.30;99.90;;;;;;5017508;28;20426;-66
2022/10/07 02:11:03;;;;;;;12.77;3.20;;;13.30;99.90;;;;;;5037249;28;20426;-66
2022/10/07 02:14:00;;;;;;;5.63;3.43;;;13.30;99.90;;;;;;5023151;28;20445;-67
2022/10/07 02:16:52;;;;;;;16.17;3.50;;;13.30;99.90;;;;;;5026734;28;20560;-66
2022/10/07 02:19:23;;;;;;;8.70;3.13;;;13.30;99.90;;;;;;5014352;28;20498;-66
2022/10/07 02:21:52;;;;;;;4.40;2.80;;;13.30;99.90;;;;;;5012982;28;20426;-66
2022/10/07 02:24:23;;;;;;;7.40;3.67;;;13.30;99.90;;;;;;5026779;28;20426;-66
2022/10/07 02:26:53;;;;;;;5.30;3.20;;;13.30;99.90;;;;;;5025247;28;20676;-66
2022/10/07 02:29:20;;;;;;;8.80;2.97;;;13.30;99.90;;;;;;5023567;28;20418;-66
2022/10/07 02:31:47;;;;;;;8.90;3.60;;;13.30;99.90;;;;;;5038696;28;20472;-65
2022/10/07 02:34:16;;;;;;;4.90;3.20;;;13.30;99.90;;;;;;5012716;28;20809;-67
2022/10/07 02:36:54;;;;;;;5.70;4.10;;;13.30;99.90;;;;;;5027532;28;20941;-66
2022/10/07 02:39:20;;;;;;;8.10;4.00;;;13.30;99.90;;;;;;5025618;28;20423;-65
2022/10/07 02:42:09;;;;;;;9.70;4.00;;;13.30;99.90;;;;;;5009630;28;20469;-65
2022/10/07 02:44:56;;;;;;;4.80;3.60;;;13.20;99.90;;;;;;5027223;28;20168;-66
2022/10/07 02:47:30;;;;;;;12.50;3.70;;;13.30;99.90;;;;;;5012217;28;20423;-65
2022/10/07 02:50:00;;;;;;;5.10;3.67;;;13.30;99.90;;;;;;5025270;28;20919;-66
2022/10/07 02:52:30;;;;;;;7.57;3.70;;;13.30;99.90;;;;;;5024494;28;20433;-66
2022/10/07 02:55:03;;;;;;;10.77;4.23;;;13.30;99.90;;;;;;5023254;28;20463;-66
2022/10/07 02:57:33;;;;;;;10.17;5.03;;;13.30;99.90;;;;;;5026402;28;20455;-66
2022/10/07 03:00:00;;;;;;;11.37;5.00;;;13.30;99.90;;;;;;5032079;28;20639;-66
2022/10/07 03:02:36;;;;;;;6.40;4.00;;;13.30;99.90;;;;;;5025588;28;20473;-66
2022/10/07 03:05:02;;;;;;;8.37;4.50;;;13.30;99.90;;;;;;5025255;28;20870;-66
2022/10/07 03:07:27;;;;;;;9.20;5.23;;;13.30;99.90;;;;;;5023042;28;20427;-67
2022/10/07 03:09:53;;;;;;;9.47;6.30;;;13.30;99.90;;;;;;5027709;28;20290;-66
2022/10/07 03:12:19;;;;;;;8.70;5.80;;;13.30;99.90;;;;;;5031130;28;20622;-66
2022/10/07 03:14:48;;;;;;;11.33;5.90;;;13.30;99.90;;;;;;5029148;28;20172;-66
2022/10/07 03:17:14;;;;;;;9.33;4.53;;;13.30;99.90;;;;;;5030711;28;20207;-66
2022/10/07 03:19:41;;;;;;;6.60;4.37;;;13.30;99.90;;;;;;5021581;28;20426;-66
2022/10/07 03:22:07;;;;;;;9.70;4.63;;;13.30;99.90;;;;;;5027813;28;20956;-66
2022/10/07 03:24:33;;;;;;;11.30;5.10;;;13.30;99.90;;;;;;5022884;28;20507;-66
2022/10/07 03:26:58;;;;;;;13.13;5.93;;;13.30;99.90;;;;;;5005783;28;21012;-66
2022/10/07 03:29:25;;;;;;;9.00;5.30;;;13.30;99.90;;;;;;5027711;28;20175;-66
2022/10/07 03:31:53;;;;;;;9.57;5.80;;;13.30;99.90;;;;;;5025701;28;20241;-66
2022/10/07 03:34:19;;;;;;;10.37;6.20;;;13.30;99.90;;;;;;5022989;28;20410;-66
2022/10/07 03:36:45;;;;;;;12.03;6.47;;;13.30;99.90;;;;;;5026628;28;21015;-66
2022/10/07 03:39:11;;;;;;;13.57;6.43;;;13.30;99.90;;;;;;5017621;28;20172;-66
2022/10/07 03:41:36;;;;;;;11.50;6.37;;;13.30;99.90;;;;;;5024239;28;20529;-66
2022/10/07 03:44:02;;;;;;;15.40;6.07;;;13.30;99.90;;;;;;5039067;28;20576;-66
2022/10/07 03:46:28;;;;;;;12.37;6.73;;;13.30;99.90;;;;;;5026313;28;20235;-67
2022/10/07 03:48:54;;;;;;;15.83;7.40;;;13.30;99.90;;;;;;5029968;28;20673;-66
2022/10/07 03:51:19;;;;;;;10.00;6.53;;;13.30;99.90;;;;;;5024800;28;20630;-66
2022/10/07 03:53:45;;;;;;;18.07;7.70;;;13.30;99.90;;;;;;5023908;28;20180;-66
2022/10/07 03:56:11;;;;;;;10.97;6.93;;;13.30;99.90;;;;;;5014874;28;20192;-66
2022/10/07 03:58:37;;;;;;;16.77;8.40;;;13.30;99.90;;;;;;5017488;28;20211;-66
2022/10/07 04:01:09;;;;;;;15.43;8.00;;;13.30;99.90;;;;;;5018908;28;20188;-62
2022/10/07 04:03:35;;;;;;;20.10;8.07;;;13.30;99.90;;;;;;5020574;28;20430;-62
2022/10/07 04:06:02;;;;;;;16.67;7.97;;;13.30;99.90;;;;;;5016448;28;20489;-62
2022/10/07 04:08:29;;;;;;;17.03;7.80;;;13.30;99.90;;;;;;5023432;28;20237;-62
2022/10/07 04:10:56;;;;;;;16.97;7.77;;;13.30;99.90;;;;;;5010349;28;20438;-62
2022/10/07 04:13:22;;;;;;;16.50;9.00;;;13.30;99.90;;;;;;5016237;28;20427;-63
2022/10/07 04:15:48;;;;;;;15.90;8.13;;;13.30;99.90;;;;;;5001396;28;20459;-63
2022/10/07 04:18:14;;;;;;;16.20;8.97;;;13.30;99.90;;;;;;5015636;28;21145;-62
2022/10/07 04:20:40;;;;;;;14.20;7.90;;;13.40;99.90;;;;;;5013814;28;20172;-61
2022/10/07 04:23:05;;;;;;;13.97;7.30;;;13.40;99.90;;;;;;5015893;28;20438;-68
2022/10/07 04:25:34;;;;;;;16.83;8.30;;;13.40;99.90;;;;;;5015537;28;21034;-67
2022/10/07 04:28:03;;;;;;;21.33;9.40;;;13.30;99.90;;;;;;5014223;28;20172;-68
2022/10/07 04:30:33;;;;;;;16.57;8.77;;;13.30;99.90;;;;;;5015817;28;21296;-68
2022/10/07 04:33:02;;;;;;;16.80;8.77;;;13.30;99.90;;;;;;5015190;28;20441;-67
2022/10/07 04:35:28;;;;;;;19.40;8.90;;;13.30;99.90;;;;;;5014966;28;21043;-67
2022/10/07 04:37:54;;;;;;;13.73;8.83;;;13.30;99.90;;;;;;5002495;28;20590;-67
2022/10/07 04:40:21;;;;;;;19.53;8.67;;;13.40;99.90;;;;;;5014462;28;20289;-66
2022/10/07 04:45:33;;;;;;;24.07;8.60;;;13.40;99.90;;;;;;5015730;28;20473;-67
2022/10/07 04:48:00;;;;;;;12.07;7.80;;;13.30;99.90;;;;;;5013827;28;20429;-66
2022/10/07 04:50:26;;;;;;;12.10;7.90;;;13.40;99.90;;;;;;5021539;28;20442;-67
2022/10/07 04:52:52;;;;;;;14.97;7.70;;;13.40;99.90;;;;;;4999502;28;20449;-69
2022/10/07 04:55:18;;;;;;;16.37;7.67;;;13.30;99.90;;;;;;5025055;28;20801;-68
2022/10/07 04:57:43;;;;;;;11.93;6.97;;;13.30;99.90;;;;;;5020647;28;20445;-68
2022/10/07 05:00:10;;;;;;;12.10;7.33;;;13.30;99.90;;;;;;5026217;28;20262;-69
2022/10/07 05:02:35;;;;;;;17.57;7.77;;;13.30;99.90;;;;;;5008619;28;20203;-67
2022/10/07 05:05:01;;;;;;;17.40;7.53;;;13.30;99.90;;;;;;5025285;28;20869;-67
2022/10/07 05:07:27;;;;;;;16.70;8.73;;;13.30;99.90;;;;;;5025501;28;20195;-67
2022/10/07 05:09:52;;;;;;;19.90;8.73;;;13.30;99.90;;;;;;5024814;28;20190;-68
2022/10/07 05:12:18;;;;;;;15.00;8.40;;;13.30;99.90;;;;;;5020214;28;20184;-68
2022/10/07 05:14:44;;;;;;;18.43;8.77;;;13.30;99.90;;;;;;4987190;28;1096219;-68
2022/10/07 05:17:11;;;;;;;19.70;9.13;;;13.30;99.90;;;;;;5027163;28;20684;-67
2022/10/07 05:19:36;;;;;;;14.40;9.00;;;13.30;99.90;;;;;;5025035;28;20989;-67
2022/10/07 05:22:02;;;;;;;25.90;9.43;;;13.30;99.90;;;;;;5020561;28;20414;-67
2022/10/07 05:24:28;;;;;;;19.10;8.57;;;13.30;99.90;;;;;;5025762;28;20179;-67
2022/10/07 05:26:54;;;;;;;15.97;8.13;;;13.30;99.90;;;;;;5012869;28;20278;-69
2022/10/07 05:29:20;;;;;;;11.10;8.43;;;13.30;99.90;;;;;;5025262;28;21016;-68
2022/10/07 05:31:48;;;;;;;10.13;6.40;;;13.30;99.90;;;;;;5008748;28;20215;-67
2022/10/07 05:34:14;;;;;;;19.20;8.67;;;13.30;99.90;;;;;;5029840;28;20461;-68
2022/10/07 05:36:41;;;;;;;11.50;7.07;;;13.30;99.90;;;;;;5017867;28;20455;-68
2022/10/07 05:39:07;;;;;;;18.40;8.57;;;13.30;99.90;;;;;;5026709;28;20442;-68
2022/10/07 05:41:33;;;;;;;14.83;8.10;;;13.30;99.90;;;;;;5008785;28;20435;-68
2022/10/07 05:43:59;;;;;;;12.70;7.80;;;13.30;99.90;;;;;;5005829;28;20430;-68
2022/10/07 05:46:24;;;;;;;12.53;7.87;;;13.30;99.90;;;;;;5031510;28;20200;-67
2022/10/07 05:48:51;;;;;;;14.53;7.10;;;13.30;99.90;;;;;;5024029;28;21010;-68
2022/10/07 05:51:19;;;;;;;12.20;7.90;;;13.30;99.90;;;;;;5023797;28;20638;-68
2022/10/07 05:53:45;;;;;;;18.83;9.17;;;13.30;99.90;;;;;;5023437;28;20622;-67
2022/10/07 05:56:14;;;;;;;14.00;8.60;;;13.20;99.90;;;;;;5016478;28;20447;-68
2022/10/07 05:58:40;;;;;;;15.20;9.97;;;13.20;99.90;;;;;;5029229;28;20852;-67
2022/10/07 06:01:12;;;;;;;15.37;8.70;;;13.20;99.90;;;;;;5024184;28;20939;-67
2022/10/07 06:03:38;;;;;;;18.90;9.90;;;13.20;99.90;;;;;;5027392;28;20427;-67
2022/10/07 06:06:04;;;;;;;14.20;9.50;;;13.30;99.90;;;;;;5009819;28;20908;-67
2022/10/07 06:08:29;;;;;;;17.50;9.90;;;13.20;99.90;;;;;;5022407;28;20832;-67
2022/10/07 06:13:52;;;;;;;17.97;11.00;;;13.20;99.90;;;;;;5020090;28;20190;-65
2022/10/07 06:16:18;;;;;;;18.10;10.90;;;13.20;99.90;;;;;;5016629;28;20915;-63
2022/10/07 06:18:44;;;;;;;20.43;11.00;;;13.20;99.90;;;;;;5021102;28;20450;-62
2022/10/07 06:21:11;;;;;;;16.03;10.00;;;13.20;99.90;;;;;;5026925;28;20180;-62
2022/10/07 06:23:37;;;;;;;19.27;10.10;;;13.10;99.90;;;;;;5030074;28;20414;-63
2022/10/07 06:26:09;;;;;;;15.40;10.37;;;13.20;99.90;;;;;;5019606;28;20790;-63
2022/10/07 06:28:36;;;;;;;28.87;10.03;;;13.20;99.90;;;;;;5015550;28;20168;-63
2022/10/07 06:31:04;;;;;;;19.67;11.03;;;13.10;99.90;;;;;;5026925;28;20853;-62
2022/10/07 06:33:30;;;;;;;16.30;10.53;;;13.10;99.90;;;;;;5027721;28;20429;-62
2022/10/07 06:35:55;;;;;;;16.43;10.57;;;13.10;99.90;;;;;;5005775;28;20481;-64
2022/10/07 06:38:21;;;;;;;21.63;12.03;;;13.10;99.90;;;;;;5017156;28;20295;-63
2022/10/07 06:41:00;;;;;;;25.17;11.60;;;13.10;99.90;;;;;;5018739;28;20603;-63
2022/10/07 06:43:27;;;;;;;21.40;12.07;;;13.10;99.90;;;;;;5027450;28;20865;-65
2022/10/07 06:46:00;;;;;;;19.23;12.27;;;13.10;99.90;;;;;;5023143;28;20541;-63
2022/10/07 06:48:31;;;;;;;28.20;12.70;;;13.10;99.90;;;;;;5022153;28;20532;-63
2022/10/07 06:50:57;;;;;;;28.30;12.90;;;13.10;99.90;;;;;;5026227;28;20465;-63
2022/10/07 06:53:24;;;;;;;21.70;11.93;;;13.10;99.90;;;;;;5021251;28;20860;-62
2022/10/07 06:55:53;;;;;;;26.00;11.50;;;13.00;99.90;;;;;;5027126;28;20462;-62
2022/10/07 06:58:20;;;;;;;18.70;11.03;;;13.00;99.90;;;;;;4996446;28;20841;-63
2022/10/07 07:00:49;;;;;;;21.83;12.33;;;13.00;99.90;;;;;;5020480;28;20494;-64
2022/10/07 07:03:16;;;;;;;21.43;12.80;;;13.00;99.90;;;;;;5029291;28;20411;-63
2022/10/07 07:05:42;;;;;;;18.60;12.07;;;13.00;99.90;;;;;;5021391;28;20454;-63
2022/10/07 07:08:08;;;;;;;20.00;12.37;;;13.00;99.90;;;;;;5025370;28;20457;-63
2022/10/07 07:10:38;;;;;;;24.07;12.40;;;12.90;99.90;;;;;;5026332;28;20937;-62
2022/10/07 07:13:07;;;;;;;17.83;10.87;;;12.90;99.90;;;;;;5001917;28;20445;-63
2022/10/07 07:15:34;;;;;;;17.60;10.83;;;12.90;99.90;;;;;;5025652;28;20555;-61
2022/10/07 07:18:01;;;;;;;22.27;10.03;;;12.90;99.90;;;;;;5003776;28;20458;-62
2022/10/07 07:20:33;;;;;;;22.30;11.00;;;12.90;99.90;;;;;;5028267;28;20979;-62
2022/10/07 07:23:00;;;;;;;21.77;10.70;;;13.00;99.90;;;;;;5028869;28;20438;-62
2022/10/07 07:25:25;;;;;;;15.97;9.47;;;13.00;99.90;;;;;;5029608;28;20617;-62
2022/10/07 07:27:51;;;;;;;18.60;10.10;;;13.00;99.90;;;;;;5030215;28;20430;-62
2022/10/07 07:30:20;;;;;;;17.10;11.10;;;13.00;99.90;;;;;;5030238;28;20178;-62
2022/10/07 07:32:46;;;;;;;15.57;10.73;;;13.00;99.90;;;;;;5030804;28;20187;-62
2022/10/07 07:35:12;;;;;;;17.50;10.57;;;13.00;99.90;;;;;;5011848;28;21042;-62
2022/10/07 07:37:38;;;;;;;15.20;9.53;;;13.00;99.90;;;;;;5016793;28;20204;-63
2022/10/07 07:40:04;;;;;;;21.83;11.47;;;13.10;99.90;;;;;;5022566;28;20546;-62
2022/10/07 07:42:30;;;;;;;18.83;10.27;;;13.10;99.90;;;;;;5028429;28;20265;-62
2022/10/07 07:44:55;;;;;;;18.70;11.20;;;13.10;99.90;;;;;;5025913;28;20904;-62
2022/10/07 07:47:21;;;;;;;18.87;10.23;;;13.10;99.90;;;;;;5026379;28;20180;-63
2022/10/07 07:49:50;;;;;;;15.87;9.77;;;13.10;99.90;;;;;;5025961;28;20184;-62
2022/10/07 07:52:15;;;;;;;16.63;9.97;;;13.10;99.90;;;;;;5003019;28;20431;-61
2022/10/07 07:54:42;;;;;;;19.57;11.17;;;13.20;99.90;;;;;;5032111;28;20429;-61
2022/10/07 07:57:08;;;;;;;17.03;9.90;;;13.10;99.90;;;;;;5025398;28;20234;-62
2022/10/07 07:59:36;;;;;;;21.17;11.97;;;13.20;99.90;;;;;;5013538;28;20485;-62
2022/10/07 08:02:02;;;;;;;21.83;11.33;;;13.20;99.90;;;;;;5030051;28;20183;-62
2022/10/07 08:04:28;;;;;;;18.13;11.00;;;13.20;99.90;;;;;;5014555;28;20434;-63
2022/10/07 08:06:54;;;;;;;20.17;11.43;;;13.20;99.90;;;;;;5024741;28;20457;-62
2022/10/07 08:09:20;;;;;;;22.27;11.73;;;13.20;99.90;;;;;;5027561;28;20433;-63
2022/10/07 08:11:45;;;;;;;24.37;11.40;;;13.20;99.90;;;;;;5023599;28;20887;-62
2022/10/07 08:14:16;;;;;;;21.50;10.90;;;13.20;99.90;;;;;;5024424;28;20247;-62
2022/10/07 08:16:47;;;;;;;20.37;11.07;;;13.10;99.90;;;;;;5018907;28;20704;-63
2022/10/07 08:19:14;;;;;;;24.37;12.07;;;13.10;99.90;;;;;;5003761;28;20509;-62
2022/10/07 08:21:40;;;;;;;25.83;12.63;;;13.00;99.90;;;;;;5018899;28;21764;-62
2022/10/07 08:24:08;;;;;;;22.60;11.87;;;13.00;99.90;;;;;;5025223;28;20489;-62
2022/10/07 08:26:36;;;;;;;26.07;12.40;;;13.10;99.90;;;;;;5028366;28;20473;-62
2022/10/07 08:29:02;;;;;;;22.20;12.17;;;13.10;99.90;;;;;;5022399;28;20929;-63
2022/10/07 08:31:29;;;;;;;21.97;11.80;;;13.10;99.90;;;;;;5024577;28;20434;-62
2022/10/07 08:34:00;;;;;;;25.67;13.17;;;13.10;99.90;;;;;;5030335;28;20425;-63
2022/10/07 08:36:27;;;;;;;22.33;11.97;;;13.10;99.90;;;;;;5013462;28;20461;-63
2022/10/07 08:38:53;;;;;;;27.30;13.50;;;13.10;99.90;;;;;;5019904;28;20451;-62
2022/10/07 08:41:34;;;;;;;28.87;13.33;;;13.10;99.90;;;;;;5018109;28;20443;-62
2022/10/07 08:44:12;;;;;;;21.97;13.30;;;13.20;99.90;;;;;;5019024;28;20444;-62
2022/10/07 08:46:40;;;;;;;23.63;13.20;;;13.20;99.90;;;;;;5011720;28;20523;-62
2022/10/07 08:49:14;;;;;;;23.40;13.40;;;13.20;99.90;;;;;;5020286;28;20444;-61
2022/10/07 08:51:55;;;;;;;26.43;14.43;;;13.20;99.90;;;;;;5024916;28;20832;-61
2022/10/07 08:54:26;;;;;;;27.87;14.33;;;13.20;99.90;;;;;;5024042;28;20479;-63
2022/10/07 08:56:54;;;;;;;35.30;15.33;;;13.20;99.90;;;;;;5019090;28;20458;-62
2022/10/07 08:59:33;;;;;;;29.00;14.70;;;13.20;99.90;;;;;;5006803;28;20527;-63
2022/10/07 09:02:30;;;;;;;26.63;12.80;;;13.20;99.90;;;;;;5021828;28;20430;-64
2022/10/07 09:05:35;;;;;;;25.77;14.33;;;13.30;99.90;;;;;;5010615;28;20486;-62
2022/10/07 09:08:16;;;;;;;25.90;12.80;;;13.30;99.90;;;;;;5026739;28;20438;-63
2022/10/07 09:10:48;;;;;;;21.13;13.10;;;13.30;99.90;;;;;;5009652;28;20434;-62
2022/10/07 09:13:21;;;;;;;31.23;14.90;;;13.30;99.90;;;;;;5010126;28;20969;-62
2022/10/07 09:15:55;;;;;;;24.30;14.40;;;13.20;99.90;;;;;;5027012;28;20475;-62
2022/10/07 09:18:34;;;;;;;23.30;12.60;;;13.30;99.90;;;;;;5026770;28;20469;-62
2022/10/07 09:21:04;;;;;;;23.03;12.03;;;13.40;99.90;;;;;;5021738;28;20425;-62
2022/10/07 09:23:32;;;;;;;22.80;13.00;;;13.40;99.90;;;;;;5026406;28;20414;-62
2022/10/07 09:25:58;;;;;;;20.97;13.00;;;13.50;99.90;;;;;;5024651;28;20458;-62
2022/10/07 09:28:29;;;;;;;21.73;13.10;;;13.50;99.90;;;;;;5029405;28;20481;-61
2022/10/07 09:30:57;;;;;;;20.93;13.27;;;13.60;99.90;;;;;;5026944;28;20453;-62
2022/10/07 09:33:24;;;;;;;21.83;13.10;;;13.70;99.90;;;;;;5030159;28;20806;-62
2022/10/07 09:35:56;;;;;;;21.03;12.97;;;13.70;99.90;;;;;;5031235;28;20458;-61
2022/10/07 09:38:32;;;;;;;26.63;13.77;;;13.80;99.90;;;;;;5032478;28;20476;-61
2022/10/07 09:41:16;;;;;;;23.40;14.17;;;13.80;99.90;;;;;;5008175;28;20430;-62
2022/10/07 09:43:53;;;;;;;18.63;11.60;;;13.90;99.90;;;;;;5032706;28;20416;-61
2022/10/07 09:47:07;;;;;;;20.23;12.93;;;13.90;99.90;;;;;;5025568;28;20442;-60
2022/10/07 09:49:40;;;;;;;20.73;12.50;;;14.00;99.90;;;;;;4958124;28;20438;-60
2022/10/07 09:52:17;;;;;;;17.70;12.10;;;14.00;99.90;;;;;;5015524;28;20466;-61
2022/10/07 09:54:45;;;;;;;18.67;12.03;;;14.10;99.90;;;;;;5023565;28;20430;-62
2022/10/07 09:57:40;;;;;;;25.00;12.53;;;14.10;99.90;;;;;;5025728;28;20458;-62
2022/10/07 10:00:12;;;;;;;19.63;11.60;;;14.20;99.90;;;;;;5021005;28;20434;-62
2022/10/07 10:02:39;;;;;;;23.57;11.87;;;14.20;99.90;;;;;;5019001;28;21157;-62
2022/10/07 10:05:17;;;;;;;19.90;12.23;;;14.20;99.90;;;;;;5018831;28;20479;-62
2022/10/07 10:07:46;;;;;;;20.23;11.63;;;14.20;99.90;;;;;;5018560;28;20489;-63
2022/10/07 10:10:19;;;;;;;23.90;12.17;;;14.30;99.90;;;;;;5024395;28;20846;-62
2022/10/07 10:12:48;;;;;;;19.83;11.70;;;14.30;99.90;;;;;;5025336;28;20446;-61
2022/10/07 10:15:34;;;;;;;28.77;12.10;;;14.30;99.90;;;;;;5016269;28;20561;-61
2022/10/07 10:18:00;;;;;;;20.87;11.40;;;14.30;99.90;;;;;;5022269;28;20964;-62
2022/10/07 10:20:34;;;;;;;26.57;12.50;;;14.30;99.90;;;;;;5022801;28;20438;-62
2022/10/07 10:23:20;;;;;;;26.10;11.80;;;14.30;99.90;;;;;;5019006;28;20466;-62
2022/10/07 10:28:58;;;;;;;29.73;12.00;;;14.30;99.90;;;;;;5019290;28;20445;-62
2022/10/07 10:31:45;;;;;;;22.43;12.83;;;14.30;99.90;;;;;;5019593;28;20505;-62
2022/10/07 10:34:19;;;;;;;20.20;13.30;;;14.30;99.90;;;;;;5020156;28;20528;-63
2022/10/07 10:36:55;;;;;;;26.43;12.30;;;14.30;99.90;;;;;;5020540;28;20508;-62
2022/10/07 10:39:24;;;;;;;20.33;12.57;;;14.30;99.90;;;;;;5021099;28;20430;-63
2022/10/07 10:41:54;;;;;;;20.73;12.40;;;14.30;99.90;;;;;;5021417;28;20438;-63
2022/10/07 10:44:48;;;;;;;17.40;12.20;;;14.30;99.90;;;;;;5025933;28;20426;-64
2022/10/07 10:47:32;;;;;;;19.47;12.27;;;14.30;99.90;;;;;;5022977;28;20916;-63
2022/10/07 10:50:23;;;;;;;23.03;11.70;;;14.30;99.90;;;;;;5029485;28;20441;-63
2022/10/07 10:52:51;;;;;;;21.97;11.90;;;14.40;99.90;;;;;;5023244;28;20426;-63
2022/10/07 10:55:32;;;;;;;20.50;11.70;;;14.40;99.90;;;;;;5007716;28;20461;-62
2022/10/07 10:58:29;;;;;;;22.53;12.37;;;14.50;99.90;;;;;;5022952;28;20454;-63
2022/10/07 11:01:10;;;;;;;26.60;12.67;;;14.50;99.90;;;;;;5020739;28;20441;-63
2022/10/07 11:04:09;;;;;;;18.40;10.13;;;14.50;99.90;;;;;;5029898;28;20498;-63
2022/10/07 11:06:39;;;;;;;18.47;11.23;;;14.60;99.90;;;;;;5006575;28;20490;-64
2022/10/07 11:09:07;;;;;;;16.93;11.50;;;14.60;99.90;;;;;;5020840;28;20423;-62
2022/10/07 11:11:34;;;;;;;21.63;12.10;;;14.60;99.90;;;;;;5003715;28;20493;-63
2022/10/07 11:14:08;;;;;;;27.20;11.77;;;14.60;99.90;;;;;;5004233;28;20430;-63
2022/10/07 11:16:43;;;;;;;22.90;12.03;;;14.60;99.90;;;;;;5019892;28;22404;-63
2022/10/07 11:19:15;;;;;;;23.47;11.30;;;14.60;99.90;;;;;;5009546;28;20431;-63
2022/10/07 11:21:43;;;;;;;24.50;11.53;;;14.60;99.90;;;;;;5015318;28;20497;-61
2022/10/07 11:24:21;;;;;;;18.17;11.07;;;14.70;99.90;;;;;;5023580;28;20948;-62
2022/10/07 11:26:57;;;;;;;18.10;10.33;;;14.70;99.90;;;;;;5024192;28;20873;-62
2022/10/07 11:29:42;;;;;;;15.10;10.53;;;14.80;99.90;;;;;;5024595;28;20457;-62
2022/10/07 11:32:27;;;;;;;21.20;11.73;;;14.80;99.90;;;;;;5023474;28;20951;-63
2022/10/07 11:34:55;;;;;;;20.30;10.80;;;14.90;99.90;;;;;;5011968;28;20425;-62
2022/10/07 11:37:28;;;;;;;21.67;11.30;;;15.00;99.90;;;;;;5029273;28;20956;-62
2022/10/07 11:39:54;;;;;;;14.47;8.73;;;15.10;99.90;;;;;;5030827;28;20402;-62
2022/10/07 11:42:26;;;;;;;19.57;9.77;;;15.40;99.90;;;;;;5030187;28;20976;-63
2022/10/07 11:45:05;;;;;;;15.40;8.67;;;15.60;99.90;;;;;;5027391;28;20216;-63
2022/10/07 11:47:46;;;;;;;14.60;8.97;;;15.90;99.90;;;;;;5028798;28;20449;-62
2022/10/07 11:50:26;;;;;;;16.20;9.73;;;16.60;99.90;;;;;;5022844;28;20480;-62
2022/10/07 11:53:00;;;;;;;22.13;9.40;;;17.70;91.20;;;;;;5024192;28;20457;-62
2022/10/07 11:55:28;;;;;;;16.37;8.47;;;18.40;77.10;;;;;;5029140;28;20423;-62
2022/10/07 11:57:59;;;;;;;14.17;8.00;;;19.00;74.30;;;;;;5028084;28;20459;-63
2022/10/07 12:00:36;;;;;;;15.57;8.50;;;19.20;71.80;;;;;;5019650;28;20434;-64
2022/10/07 12:03:32;;;;;;;15.50;8.13;;;19.40;71.60;;;;;;5020774;28;20423;-63
2022/10/07 12:06:09;;;;;;;12.47;7.10;;;20.00;70.20;;;;;;5002610;28;20592;-63
2022/10/07 12:08:37;;;;;;;14.77;8.40;;;20.40;65.40;;;;;;5016965;28;20430;-63
2022/10/07 12:11:11;;;;;;;8.63;6.00;;;20.70;62.70;;;;;;5015657;28;20499;-63
2022/10/07 12:13:37;;;;;;;13.40;6.90;;;21.00;63.60;;;;;;5015071;28;21819;-63
2022/10/07 12:16:28;;;;;;;13.27;7.43;;;21.30;62.90;;;;;;5017879;28;20463;-63
2022/10/07 12:19:06;;;;;;;14.23;7.20;;;21.70;62.00;;;;;;5028694;28;20203;-64
2022/10/07 12:22:03;;;;;;;14.60;7.33;;;21.80;59.20;;;;;;5025770;28;20596;-64
2022/10/07 12:24:34;;;;;;;12.30;6.37;;;21.40;58.50;;;;;;5027855;28;20399;-63
2022/10/07 12:27:17;;;;;;;14.77;6.50;;;21.20;61.10;;;;;;5029691;28;20433;-62
2022/10/07 12:30:03;;;;;;;10.70;6.77;;;21.30;60.90;;;;;;5012601;28;20415;-62
2022/10/07 12:32:59;;;;;;;14.03;6.50;;;21.60;60.80;;;;;;5022503;28;20434;-62
2022/10/07 12:35:33;;;;;;;19.83;7.10;;;21.90;60.10;;;;;;5027398;28;21115;-62
2022/10/07 12:38:12;;;;;;;17.90;7.10;;;22.00;58.20;;;;;;5028419;28;20454;-63
2022/10/07 12:40:39;;;;;;;12.13;7.13;;;22.10;58.50;;;;;;5026411;28;20438;-62
2022/10/07 12:43:33;;;;;;;9.57;5.93;;;22.20;58.90;;;;;;5028342;28;20414;-63
2022/10/07 12:46:00;;;;;;;13.23;6.80;;;22.50;59.10;;;;;;4999881;28;20426;-63
2022/10/07 12:48:31;;;;;;;22.77;6.47;;;22.60;58.50;;;;;;5028185;28;20442;-63
2022/10/07 12:50:59;;;;;;;15.33;7.00;;;22.70;58.50;;;;;;5016749;28;20426;-63
2022/10/07 12:53:26;;;;;;;11.97;5.60;;;22.70;57.60;;;;;;5028629;28;20525;-63
2022/10/07 12:55:54;;;;;;;10.30;6.67;;;22.70;57.00;;;;;;5029439;28;20908;-63
2022/10/07 13:01:32;;;;;;;14.53;6.60;;;22.80;56.70;;;;;;5030706;28;20464;-63
2022/10/07 13:04:00;;;;;;;12.03;6.60;;;22.80;56.30;;;;;;5045906;28;20430;-63
2022/10/07 13:07:14;;;;;;;9.77;6.47;;;22.70;57.20;;;;;;5027433;28;20450;-62
2022/10/07 13:09:48;;;;;;;11.00;6.43;;;22.60;57.10;;;;;;5039815;28;20425;-64